CPS1 weather

Parry Sound Harbour Seaplane Base
Ontario, Canada

Public forecast

Using degrees Celsius for public forecast. Weather courtesy of forecast.io.

METAR (pilot weather report)

Closest report is Muskoka Airport, 37.9 nm (70.2 km) SE. Retrieved 2019/07/18 09:00 UTC (1 hour ago):

CYQA 180900Z AUTO VRB02KT 9SM CLR 16/13 A2996 RMK SLP145 DENSITY ALT 1100FT

TAF (pilot weather forecast)

Forecast is more than 12 hours old.

Closest forecast is Muskoka Airport, 37.9 nm (70.2 km) SE. Retrieved 2019/07/17 20:00 UTC (14 hours ago):

TAF CYQA 171938Z 1720/1802 35006KT P6SM FEW040 RMK FCST BASED ON AUTO OBS. NXT FCST WILL BE ISSUED AT 181145Z